Time;durP1;ratioP1;P1;durP2;ratioP2;P2;SDS_P1;SDS_P2;PMS_P1;PMS_P2;Temp;Humidity;BMP_temperature;BMP_pressure;BME280_temperature;BME280_humidity;BME280_pressure;Samples;Min_cycle;Max_cycle;Signal;HPM_P1;HPM_P2
2023/09/22 00:02:05;;;;;;;;;;;;;;;16.57;46.17;100859.16;5055889;28;1126;-56
2023/09/22 00:04:31;;;;;;;;;;;;;;;16.46;46.02;100857.47;5068984;28;1335;-57
2023/09/22 00:06:56;;;;;;;;;;;;;;;16.48;45.33;100850.63;5055915;28;1151;-56
2023/09/22 00:09:22;;;;;;;;;;;;;;;16.40;45.62;100864.88;5055872;28;1114;-57
2023/09/22 00:11:48;;;;;;;;;;;;;;;16.41;45.20;100850.88;5064977;28;1515;-57
2023/09/22 00:14:13;;;;;;;;;;;;;;;16.38;45.29;100854.19;5070406;28;1129;-56
2023/09/22 00:16:38;;;;;;;;;;;;;;;17.02;46.44;100848.53;5079656;28;1967;-57
2023/09/22 00:19:05;;;;;;;;;;;;;;;16.68;46.43;100841.59;5076991;28;1146;-56
2023/09/22 00:21:32;;;;;;;;;;;;;;;16.53;46.33;100845.13;5062285;28;1023;-57
2023/09/22 00:23:57;;;;;;;;;;;;;;;16.48;45.97;100847.03;5074920;28;1138;-56
2023/09/22 00:26:23;;;;;;;;;;;;;;;16.45;45.70;100840.16;5079769;28;1138;-56
2023/09/22 00:28:48;;;;;;;;;;;;;;;16.40;45.41;100856.66;5063823;28;1070;-56
2023/09/22 00:31:14;;;;;;;;;;;;;;;17.22;46.43;100839.44;5068573;28;1121;-56
2023/09/22 00:33:39;;;;;;;;;;;;;;;16.79;47.01;100849.84;5052147;28;1237;-56
2023/09/22 00:36:05;;;;;;;;;;;;;;;16.69;46.61;100845.16;5079234;28;1969;-56
2023/09/22 00:38:30;;;;;;;;;;;;;;;16.57;46.36;100848.16;5065850;28;1134;-57
2023/09/22 00:40:56;;;;;;;;;;;;;;;16.53;45.93;100845.13;5061453;28;1190;-56
2023/09/22 00:43:21;;;;;;;;;;;;;;;16.55;45.35;100848.44;5063627;28;1228;-56
2023/09/22 00:45:50;;;;;;;;;;;;;;;16.40;45.81;100842.91;5066148;28;1129;-56
2023/09/22 00:48:20;;;;;;;;;;;;;;;16.41;45.55;100858.28;5065673;28;1305;-56
2023/09/22 00:50:45;;;;;;;;;;;;;;;16.39;45.17;100855.81;5079091;28;1141;-56
2023/09/22 00:53:11;;;;;;;;;;;;;;;16.23;45.36;100854.94;5042222;28;1080;-56
2023/09/22 00:55:36;;;;;;;;;;;;;;;16.30;45.16;100848.38;5019599;28;1965;-56
2023/09/22 00:58:02;;;;;;;;;;;;;;;16.32;45.25;100847.00;5024569;28;1028;-56
2023/09/22 01:00:27;;;;;;;;;;;;;;;17.42;46.10;100833.91;5028068;28;1051;-56
2023/09/22 01:02:54;;;;;;;;;;;;;;;16.77;47.33;100834.47;5024672;28;1081;-56
2023/09/22 01:05:20;;;;;;;;;;;;;;;16.61;46.77;100827.31;5037687;28;1082;-56
2023/09/22 01:07:45;;;;;;;;;;;;;;;16.51;46.38;100816.28;5021320;28;1424;-56
2023/09/22 01:10:11;;;;;;;;;;;;;;;16.46;45.87;100824.53;5026295;28;1088;-56
2023/09/22 01:12:37;;;;;;;;;;;;;;;16.46;45.73;100827.28;5025789;28;1111;-57
2023/09/22 01:15:02;;;;;;;;;;;;;;;17.30;46.32;100827.06;5037307;28;1905;-56
2023/09/22 01:17:28;;;;;;;;;;;;;;;16.91;47.34;100840.28;5025440;28;1066;-56
2023/09/22 01:19:53;;;;;;;;;;;;;;;16.72;46.98;100834.47;5016943;28;1140;-57
2023/09/22 01:22:20;;;;;;;;;;;;;;;16.61;46.32;100827.31;5030675;28;1079;-57
2023/09/22 01:24:45;;;;;;;;;;;;;;;16.52;46.26;100839.91;5037878;28;1125;-57
2023/09/22 01:27:11;;;;;;;;;;;;;;;16.46;45.92;100839.09;5038300;28;1102;-58
2023/09/22 01:29:37;;;;;;;;;;;;;;;16.53;45.39;100830.59;5038793;28;1078;-57
2023/09/22 01:32:03;;;;;;;;;;;;;;;16.48;45.38;100833.31;5038661;28;1043;-56
2023/09/22 01:34:28;;;;;;;;;;;;;;;16.43;45.34;100839.63;5037605;28;1041;-56
2023/09/22 01:36:54;;;;;;;;;;;;;;;16.37;45.08;100840.72;5032864;28;1910;-56
2023/09/22 01:39:19;;;;;;;;;;;;;;;17.12;46.51;100843.00;5029718;28;1142;-56
2023/09/22 01:41:45;;;;;;;;;;;;;;;16.71;46.83;100843.78;5031213;28;1051;-57
2023/09/22 01:44:11;;;;;;;;;;;;;;;16.57;46.52;100842.69;5025869;28;1187;-56
2023/09/22 01:46:36;;;;;;;;;;;;;;;16.51;46.26;100832.75;5021273;28;1514;-57
2023/09/22 01:49:02;;;;;;;;;;;;;;;16.42;45.92;100836.06;5017103;28;1198;-57
2023/09/22 01:51:27;;;;;;;;;;;;;;;16.49;45.44;100840.47;5018477;28;1082;-57
2023/09/22 01:53:55;;;;;;;;;;;;;;;17.26;46.12;100829.53;5063333;28;1082;-57
2023/09/22 01:56:21;;;;;;;;;;;;;;;16.74;47.04;100821.28;5075397;28;2000;-57
2023/09/22 01:58:48;;;;;;;;;;;;;;;16.68;46.20;100832.53;5050683;28;1092;-57
2023/09/22 02:01:14;;;;;;;;;;;;;;;16.56;45.96;100830.03;5077570;28;1134;-57
2023/09/22 02:03:39;;;;;;;;;;;;;;;16.55;45.72;100833.88;5051172;28;1023;-56
2023/09/22 02:06:05;;;;;;;;;;;;;;;16.50;45.47;100836.63;5054787;28;1464;-58
2023/09/22 02:08:30;;;;;;;;;;;;;;;16.58;45.80;100838.84;5069782;28;1085;-58
2023/09/22 02:10:56;;;;;;;;;;;;;;;16.98;47.03;100825.44;5050823;28;1267;-58
2023/09/22 02:13:22;;;;;;;;;;;;;;;16.65;46.94;100830.31;5069593;28;1096;-57
2023/09/22 02:15:50;;;;;;;;;;;;;;;16.67;46.13;100831.69;5057757;28;1898;-58
2023/09/22 02:18:17;;;;;;;;;;;;;;;16.56;46.03;100825.41;5057205;28;1137;-58
2023/09/22 02:20:43;;;;;;;;;;;;;;;16.40;46.03;100810.81;5072201;28;1090;-57
2023/09/22 02:23:09;;;;;;;;;;;;;;;17.10;46.32;100810.31;5051946;28;2188;-57
2023/09/22 02:25:35;;;;;;;;;;;;;;;16.81;47.16;100810.03;5074839;28;1149;-58
2023/09/22 02:28:01;;;;;;;;;;;;;;;16.72;46.51;100823.47;5048618;28;1220;-58
2023/09/22 02:30:26;;;;;;;;;;;;;;;16.63;46.23;100825.09;5061204;28;1151;-59
2023/09/22 02:32:54;;;;;;;;;;;;;;;16.65;45.51;100817.44;5057280;28;1095;-58
2023/09/22 02:35:22;;;;;;;;;;;;;;;16.52;45.62;100815.22;5059024;28;1902;-58
2023/09/22 02:37:48;;;;;;;;;;;;;;;17.30;46.49;100808.63;5066537;28;1114;-58
2023/09/22 02:40:14;;;;;;;;;;;;;;;16.88;47.07;100809.75;5076719;28;1031;-57
2023/09/22 02:42:40;;;;;;;;;;;;;;;16.72;46.77;100812.50;5076908;28;1058;-57
2023/09/22 02:45:06;;;;;;;;;;;;;;;16.66;46.16;100813.59;5074612;28;1194;-57
2023/09/22 02:47:32;;;;;;;;;;;;;;;16.52;45.97;100826.19;5052775;28;971;-56
2023/09/22 02:49:57;;;;;;;;;;;;;;;16.56;45.64;100824.56;5055428;28;1112;-57
2023/09/22 02:52:23;;;;;;;;;;;;;;;16.59;45.21;100824.84;5055234;28;1241;-57
2023/09/22 02:54:52;;;;;;;;;;;;;;;16.49;45.41;100830.31;5060886;28;1894;-55
2023/09/22 02:57:18;;;;;;;;;;;;;;;16.43;45.22;100843.19;5044679;28;1076;-55
2023/09/22 02:59:43;;;;;;;;;;;;;;;17.03;46.55;100842.75;5063362;28;2577;-56
2023/09/22 03:02:09;;;;;;;;;;;;;;;16.75;46.61;100855.88;5064495;28;2073;-55
2023/09/22 03:04:34;;;;;;;;;;;;;;;16.73;45.82;100852.59;5070806;28;2168;-55
2023/09/22 03:07:00;;;;;;;;;;;;;;;16.59;45.85;100849.56;5057093;28;1872;-56
2023/09/22 03:09:25;;;;;;;;;;;;;;;16.49;45.66;100840.47;5075659;28;1776;-56
2023/09/22 03:11:53;;;;;;;;;;;;;;;16.49;45.28;100851.44;5055359;28;1788;-55
2023/09/22 03:14:19;;;;;;;;;;;;;;;16.48;45.23;100845.13;5056760;28;2051;-56
2023/09/22 03:16:45;;;;;;;;;;;;;;;16.42;44.99;100849.78;5075446;28;1987;-55
2023/09/22 03:19:12;;;;;;;;;;;;;;;16.40;45.03;100846.47;5076037;28;1288;-56
2023/09/22 03:21:37;;;;;;;;;;;;;;;17.01;46.58;100853.19;5074935;28;1189;-56
2023/09/22 03:24:03;;;;;;;;;;;;;;;16.64;46.67;100847.91;5054464;28;1110;-56
2023/09/22 03:26:29;;;;;;;;;;;;;;;16.56;46.14;100844.59;5056069;28;1019;-55
2023/09/22 03:28:54;;;;;;;;;;;;;;;16.54;45.76;100845.97;5054638;28;1212;-56
2023/09/22 03:31:20;;;;;;;;;;;;;;;16.47;45.48;100846.22;5057764;28;1867;-55
2023/09/22 03:33:47;;;;;;;;;;;;;;;16.40;45.29;100842.91;5046740;28;1098;-56
2023/09/22 03:36:13;;;;;;;;;;;;;;;16.30;45.21;100840.97;5051145;28;1981;-56
2023/09/22 03:38:40;;;;;;;;;;;;;;;16.41;44.93;100842.66;5055443;28;1296;-56
2023/09/22 03:41:05;;;;;;;;;;;;;;;16.29;45.34;100852.22;5054742;28;1014;-56
2023/09/22 03:43:32;;;;;;;;;;;;;;;17.49;46.18;100839.13;5037925;28;2266;-56
2023/09/22 03:45:57;;;;;;;;;;;;;;;16.76;47.14;100846.56;5051130;28;1218;-50
2023/09/22 03:48:23;;;;;;;;;;;;;;;16.67;46.59;100847.38;5055774;28;991;-49
2023/09/22 03:50:48;;;;;;;;;;;;;;;16.52;46.12;100849.00;5050449;28;1868;-53
2023/09/22 03:53:14;;;;;;;;;;;;;;;16.51;45.90;100854.72;5038063;28;1233;-49
2023/09/22 03:55:40;;;;;;;;;;;;;;;16.42;45.67;100852.53;5068606;28;1901;-55
2023/09/22 03:58:06;;;;;;;;;;;;;;;16.74;45.88;100854.22;5044524;28;1092;-54
2023/09/22 04:00:32;;;;;;;;;;;;;;;16.85;47.17;100859.75;5040062;28;1312;-52
2023/09/22 04:02:59;;;;;;;;;;;;;;;16.64;47.00;100859.72;5042135;28;1235;-57
2023/09/22 04:05:25;;;;;;;;;;;;;;;16.52;46.28;100849.00;5045165;28;1345;-55
2023/09/22 04:07:51;;;;;;;;;;;;;;;16.51;45.98;100855.56;5075732;28;1058;-55
2023/09/22 04:10:19;;;;;;;;;;;;;;;16.50;45.51;100859.41;5062377;28;1110;-55
2023/09/22 04:12:44;;;;;;;;;;;;;;;16.45;45.45;100856.63;5047946;28;865;-55
2023/09/22 04:15:10;;;;;;;;;;;;;;;16.49;45.26;100860.50;5071031;28;2544;-55
2023/09/22 04:17:36;;;;;;;;;;;;;;;16.52;45.50;100862.72;5067188;28;1142;-54
2023/09/22 04:20:07;;;;;;;;;;;;;;;16.94;46.47;100866.34;5070735;28;1135;-56
2023/09/22 04:22:33;;;;;;;;;;;;;;;16.66;46.39;100863.03;5061961;28;1224;-55
2023/09/22 04:25:01;;;;;;;;;;;;;;;16.58;45.83;100855.31;5055827;28;860;-56
2023/09/22 04:27:32;;;;;;;;;;;;;;;16.55;45.51;100859.44;5059838;28;1013;-55
2023/09/22 04:30:00;;;;;;;;;;;;;;;16.56;45.31;100852.00;5075756;28;1100;-55
2023/09/22 04:32:28;;;;;;;;;;;;;;;16.40;45.34;100854.72;5072240;28;1221;-55
2023/09/22 04:34:54;;;;;;;;;;;;;;;16.42;45.37;100847.06;5075289;28;1971;-56
2023/09/22 04:37:23;;;;;;;;;;;;;;;16.83;45.64;100851.78;5038433;28;1128;-55
2023/09/22 04:39:48;;;;;;;;;;;;;;;16.16;48.04;100850.78;5055591;28;1023;-55
2023/09/22 04:42:14;;;;;;;;;;;;;;;16.83;47.74;100867.41;5072311;28;1136;-54
2023/09/22 04:44:39;;;;;;;;;;;;;;;16.90;47.77;100874.34;5073904;28;2169;-54
2023/09/22 04:47:05;;;;;;;;;;;;;;;16.85;47.78;100870.72;5061168;28;1071;-56
2023/09/22 04:49:31;;;;;;;;;;;;;;;16.82;48.14;100865.78;5056420;28;1146;-57
2023/09/22 04:51:56;;;;;;;;;;;;;;;16.79;48.43;100864.41;5066933;28;1216;-54
2023/09/22 04:54:22;;;;;;;;;;;;;;;16.70;48.57;100861.34;5068082;28;1071;-55
2023/09/22 04:56:48;;;;;;;;;;;;;;;16.65;48.98;100863.28;5055387;28;1972;-55
2023/09/22 04:59:16;;;;;;;;;;;;;;;16.60;49.20;100855.84;5057251;28;1007;-54
2023/09/22 05:01:41;;;;;;;;;;;;;;;16.51;49.11;100843.75;5078623;28;995;-54
2023/09/22 05:04:07;;;;;;;;;;;;;;;16.52;49.50;100861.88;5077373;28;1130;-55
2023/09/22 05:06:33;;;;;;;;;;;;;;;16.51;49.53;100860.22;5058441;28;1178;-54
2023/09/22 05:08:58;;;;;;;;;;;;;;;16.48;49.69;100877.22;5059584;28;1011;-54
2023/09/22 05:11:24;;;;;;;;;;;;;;;16.46;49.99;100868.47;5070493;28;1142;-52
2023/09/22 05:13:49;;;;;;;;;;;;;;;16.41;50.18;100867.34;5067394;28;1843;-54
2023/09/22 05:16:15;;;;;;;;;;;;;;;16.40;50.43;100873.09;5070058;28;1914;-55
2023/09/22 05:18:40;;;;;;;;;;;;;;;16.41;50.41;100861.88;5073303;28;1036;-54
2023/09/22 05:21:09;;;;;;;;;;;;;;;16.32;50.91;100868.16;5070061;28;1063;-54
2023/09/22 05:23:34;;;;;;;;;;;;;;;16.29;51.03;100875.00;5058411;28;1182;-55
2023/09/22 05:26:04;;;;;;;;;;;;;;;16.26;50.94;100870.03;5077145;28;1022;-63
2023/09/22 05:28:30;;;;;;;;;;;;;;;16.27;51.31;100876.34;5078597;28;1056;-65
2023/09/22 05:30:56;;;;;;;;;;;;;;;17.51;48.66;100872.66;5077933;28;1523;-61
2023/09/22 05:33:21;;;;;;;;;;;;;;;16.99;49.79;100877.34;5065086;28;1015;-64
2023/09/22 05:35:47;;;;;;;;;;;;;;;16.73;50.59;100880.06;5064778;28;1914;-60
2023/09/22 05:38:13;;;;;;;;;;;;;;;16.58;51.14;100882.78;5078063;28;1086;-60
2023/09/22 05:40:39;;;;;;;;;;;;;;;16.52;51.21;100887.44;5065037;28;1098;-65
2023/09/22 05:43:10;;;;;;;;;;;;;;;16.47;51.69;100879.16;5064707;28;1039;-61
2023/09/22 05:45:35;;;;;;;;;;;;;;;16.40;51.74;100892.31;5065849;28;1059;-59
2023/09/22 05:48:01;;;;;;;;;;;;;;;16.34;51.79;100904.34;5077338;28;1127;-61
2023/09/22 05:50:26;;;;;;;;;;;;;;;16.34;51.89;100905.19;5071463;28;1043;-59
2023/09/22 05:52:52;;;;;;;;;;;;;;;16.35;51.84;100906.81;5057534;28;1127;-60
2023/09/22 05:55:18;;;;;;;;;;;;;;;17.40;49.88;100893.00;5058504;28;1914;-60
2023/09/22 05:57:43;;;;;;;;;;;;;;;16.86;51.41;100900.66;5057986;28;1055;-60
2023/09/22 06:00:15;;;;;;;;;;;;;;;16.72;51.60;100900.38;5057932;28;1127;-57
2023/09/22 06:02:44;;;;;;;;;;;;;;;16.56;52.19;100893.19;5073001;28;1103;-61
2023/09/22 06:05:10;;;;;;;;;;;;;;;16.55;52.33;100902.50;5077727;28;1151;-63
2023/09/22 06:07:35;;;;;;;;;;;;;;;16.46;52.48;100898.66;5077540;28;1106;-61
2023/09/22 06:10:05;;;;;;;;;;;;;;;16.46;52.65;100906.88;5068089;28;1125;-62
2023/09/22 06:12:31;;;;;;;;;;;;;;;16.41;52.68;100900.28;5064418;28;1094;-60
2023/09/22 06:14:59;;;;;;;;;;;;;;;16.31;53.11;100894.75;5057246;28;1909;-64
2023/09/22 06:17:25;;;;;;;;;;;;;;;16.35;53.02;100901.34;5058074;28;1039;-59
2023/09/22 06:19:51;;;;;;;;;;;;;;;16.31;53.27;100894.75;5066980;28;1090;-62
2023/09/22 06:22:17;;;;;;;;;;;;;;;17.44;51.45;100888.59;5060571;28;1170;-60
2023/09/22 06:24:42;;;;;;;;;;;;;;;17.01;52.43;100897.16;5065415;28;977;-64
2023/09/22 06:27:08;;;;;;;;;;;;;;;16.78;53.16;100898.44;5076747;28;1130;-61
2023/09/22 06:29:33;;;;;;;;;;;;;;;16.63;53.58;100901.16;5074825;28;1217;-61
2023/09/22 06:31:59;;;;;;;;;;;;;;;16.59;53.46;100906.34;5076987;28;1105;-62
2023/09/22 06:34:24;;;;;;;;;;;;;;;16.51;53.62;100898.66;5074877;28;1205;-59
2023/09/22 06:36:50;;;;;;;;;;;;;;;16.49;53.45;100885.19;5070988;28;1975;-61
2023/09/22 06:39:16;;;;;;;;;;;;;;;16.48;53.60;100900.03;5077285;28;1063;-65
2023/09/22 06:41:42;;;;;;;;;;;;;;;16.42;53.80;100901.94;5062974;28;1117;-62
2023/09/22 06:44:10;;;;;;;;;;;;;;;16.38;53.81;100909.06;5055945;28;1229;-62
2023/09/22 06:46:35;;;;;;;;;;;;;;;16.33;53.73;100913.72;5072601;28;1109;-64
2023/09/22 06:49:03;;;;;;;;;;;;;;;16.36;53.77;100922.22;5074467;28;1469;-63
2023/09/22 06:51:30;;;;;;;;;;;;;;;16.28;54.10;100914.50;5070239;28;1145;-65
2023/09/22 06:53:55;;;;;;;;;;;;;;;16.29;53.88;100918.88;5056889;28;1495;-63
2023/09/22 06:56:21;;;;;;;;;;;;;;;16.57;53.91;100905.81;5074497;28;1970;-66
2023/09/22 06:58:47;;;;;;;;;;;;;;;17.66;52.35;100915.81;5073304;28;1145;-68
2023/09/22 07:01:13;;;;;;;;;;;;;;;17.03;54.00;100908.69;5071113;28;1141;-66
2023/09/22 07:03:43;;;;;;;;;;;;;;;16.81;54.35;100905.31;5077149;28;1169;-65
2023/09/22 07:06:10;;;;;;;;;;;;;;;16.74;54.26;100911.88;5057803;28;1139;-68
2023/09/22 07:08:38;;;;;;;;;;;;;;;16.65;54.34;100915.44;5073566;28;1194;-70
2023/09/22 07:11:05;;;;;;;;;;;;;;;16.60;54.31;100913.50;5066831;28;1106;-68
2023/09/22 07:13:30;;;;;;;;;;;;;;;16.55;54.41;100917.06;5059951;28;1158;-60
2023/09/22 07:15:57;;;;;;;;;;;;;;;16.49;54.46;100922.81;5066219;28;1993;-66
2023/09/22 07:18:22;;;;;;;;;;;;;;;16.49;54.20;100909.09;5066403;28;1098;-66
2023/09/22 07:20:48;;;;;;;;;;;;;;;16.47;54.41;100914.84;5075899;28;1089;-65
2023/09/22 07:23:14;;;;;;;;;;;;;;;16.46;54.21;100917.88;5076133;28;1020;-65
2023/09/22 07:25:39;;;;;;;;;;;;;;;16.42;54.22;100918.41;5075447;28;1324;-65
2023/09/22 07:28:07;;;;;;;;;;;;;;;16.41;54.16;100921.41;5066647;28;1201;-67
2023/09/22 07:30:34;;;;;;;;;;;;;;;17.22;53.97;100913.63;5067288;28;1062;-69
2023/09/22 07:33:00;;;;;;;;;;;;;;;17.26;54.07;100904.56;5058831;28;1165;-63
2023/09/22 07:35:26;;;;;;;;;;;;;;;16.89;54.95;100911.13;5057954;28;1913;-61
2023/09/22 07:37:51;;;;;;;;;;;;;;;16.79;54.79;100919.34;5056167;28;1133;-63
2023/09/22 07:40:17;;;;;;;;;;;;;;;16.71;54.99;100915.19;5068796;28;1289;-62
2023/09/22 07:42:44;;;;;;;;;;;;;;;16.64;54.85;100922.84;5070982;28;1107;-63
2023/09/22 07:45:10;;;;;;;;;;;;;;;16.60;54.72;100929.97;5076240;28;1386;-61
2023/09/22 07:47:37;;;;;;;;;;;;;;;16.56;54.86;100923.38;5076315;28;1012;-60
2023/09/22 07:50:03;;;;;;;;;;;;;;;16.59;54.57;100929.16;5057747;28;1053;-60
2023/09/22 07:52:29;;;;;;;;;;;;;;;16.55;54.72;100925.31;5055680;28;1546;-60
2023/09/22 07:54:55;;;;;;;;;;;;;;;16.53;54.70;100934.91;5061382;28;1059;-60
2023/09/22 07:57:21;;;;;;;;;;;;;;;16.48;54.48;100934.88;5076333;28;1079;-60
2023/09/22 07:59:46;;;;;;;;;;;;;;;16.41;54.79;100933.22;5058129;28;1113;-60
2023/09/22 08:02:12;;;;;;;;;;;;;;;16.40;54.79;100928.81;5067741;28;875;-59
2023/09/22 08:04:38;;;;;;;;;;;;;;;16.39;54.76;100934.56;5070911;28;1011;-64
2023/09/22 08:07:05;;;;;;;;;;;;;;;16.41;54.50;100935.97;5067676;28;1044;-59
2023/09/22 08:09:31;;;;;;;;;;;;;;;16.40;54.36;100931.56;5057541;28;1174;-61
2023/09/22 08:11:56;;;;;;;;;;;;;;;17.28;54.49;100918.03;5055718;28;1024;-59
2023/09/22 08:14:23;;;;;;;;;;;;;;;17.21;55.06;100912.00;5057933;28;1153;-60
2023/09/22 08:16:49;;;;;;;;;;;;;;;16.91;55.56;100905.38;5068093;28;1910;-62
2023/09/22 08:19:15;;;;;;;;;;;;;;;16.81;55.35;100908.88;5055930;28;1012;-62
2023/09/22 08:21:40;;;;;;;;;;;;;;;16.73;55.35;100910.25;5066064;28;1159;-61
2023/09/22 08:24:07;;;;;;;;;;;;;;;16.66;55.28;100906.94;5076088;28;1198;-62
2023/09/22 08:26:33;;;;;;;;;;;;;;;16.65;55.00;100910.78;5058142;28;889;-61
2023/09/22 08:28:59;;;;;;;;;;;;;;;16.67;55.03;100894.84;5055425;28;1015;-62
2023/09/22 08:31:34;;;;;;;;;;;;;;;16.63;54.99;100901.16;5044142;28;1163;-64
2023/09/22 08:34:00;;;;;;;;;;;;;;;16.57;54.98;100903.06;5060172;28;973;-62
2023/09/22 08:36:25;;;;;;;;;;;;;;;16.54;55.15;100904.44;5078847;28;1913;-65
2023/09/22 08:38:51;;;;;;;;;;;;;;;16.55;54.98;100900.59;5078120;28;912;-59
2023/09/22 08:41:17;;;;;;;;;;;;;;;16.54;54.99;100909.13;5066277;28;1003;-60
2023/09/22 08:43:42;;;;;;;;;;;;;;;16.51;54.67;100899.50;5058716;28;1124;-61
2023/09/22 08:46:08;;;;;;;;;;;;;;;16.50;54.61;100899.75;5061828;28;1109;-61
2023/09/22 08:48:34;;;;;;;;;;;;;;;16.43;55.18;100905.50;5060425;28;1062;-62
2023/09/22 08:51:00;;;;;;;;;;;;;;;16.49;54.75;100900.84;5054475;28;1089;-61
2023/09/22 08:53:27;;;;;;;;;;;;;;;16.42;55.16;100901.09;5058811;28;1131;-64
2023/09/22 08:55:52;;;;;;;;;;;;;;;17.52;54.85;100890.00;5053851;28;1979;-61
2023/09/22 08:58:18;;;;;;;;;;;;;;;17.08;55.85;100892.22;5069497;28;1097;-62
2023/09/22 09:00:47;;;;;;;;;;;;;;;16.89;55.94;100894.66;5060611;28;1094;-60
2023/09/22 09:03:13;;;;;;;;;;;;;;;16.81;55.69;100897.09;5069505;28;1265;-61
2023/09/22 09:05:39;;;;;;;;;;;;;;;16.73;55.62;100902.03;5060482;28;1078;-61
2023/09/22 09:08:12;;;;;;;;;;;;;;;16.67;55.39;100902.28;5069143;28;1066;-64
2023/09/22 09:10:38;;;;;;;;;;;;;;;16.65;55.36;100897.06;5068689;28;1264;-63
2023/09/22 09:13:05;;;;;;;;;;;;;;;16.68;55.21;100896.50;5069760;28;1088;-62
2023/09/22 09:15:41;;;;;;;;;;;;;;;16.65;54.90;100880.59;5075765;28;1929;-64
2023/09/22 09:18:07;;;;;;;;;;;;;;;16.61;54.92;100884.97;5076985;28;1098;-59
2023/09/22 09:20:33;;;;;;;;;;;;;;;16.55;54.85;100873.16;5073775;28;1136;-58
2023/09/22 09:22:58;;;;;;;;;;;;;;;16.54;55.02;100881.66;5060532;28;1281;-59
2023/09/22 09:25:24;;;;;;;;;;;;;;;16.62;54.81;100877.53;5065478;28;1338;-61
2023/09/22 09:27:59;;;;;;;;;;;;;;;16.55;54.72;100877.78;5056906;28;1293;-61
2023/09/22 09:30:24;;;;;;;;;;;;;;;16.55;54.78;100880.53;5058032;28;1071;-61
2023/09/22 09:32:50;;;;;;;;;;;;;;;16.50;54.69;100880.56;5058634;28;1044;-65
2023/09/22 09:35:28;;;;;;;;;;;;;;;16.51;54.61;100879.44;5070467;28;1976;-60
2023/09/22 09:38:03;;;;;;;;;;;;;;;16.49;54.97;100873.41;5071487;28;1136;-58
2023/09/22 09:40:28;;;;;;;;;;;;;;;16.46;54.74;100874.75;5065262;28;1003;-61
2023/09/22 09:42:54;;;;;;;;;;;;;;;16.46;54.58;100874.75;5064626;28;1106;-58
2023/09/22 09:45:20;;;;;;;;;;;;;;;16.46;54.57;100877.50;5060404;28;1063;-57
2023/09/22 09:47:45;;;;;;;;;;;;;;;16.43;54.40;100876.13;5063821;28;1147;-60
2023/09/22 09:50:12;;;;;;;;;;;;;;;17.39;55.26;100875.72;5040088;28;911;-59
2023/09/22 09:52:59;;;;;;;;;;;;;;;17.21;56.08;100871.59;5040217;28;1116;-59
2023/09/22 09:55:27;;;;;;;;;;;;;;;16.95;56.07;100879.00;5069252;28;1910;-60
2023/09/22 09:57:53;;;;;;;;;;;;;;;16.88;55.88;100870.19;5064279;28;1233;-61
2023/09/22 10:00:19;;;;;;;;;;;;;;;16.85;55.44;100862.50;5048770;28;1071;-64
2023/09/22 10:02:47;;;;;;;;;;;;;;;16.75;55.69;100861.38;5075727;28;1008;-58
2023/09/22 10:05:15;;;;;;;;;;;;;;;16.72;55.48;100861.91;5072828;28;1186;-58
2023/09/22 10:07:48;;;;;;;;;;;;;;;16.70;55.42;100863.28;5068122;28;1035;-57
2023/09/22 10:10:17;;;;;;;;;;;;;;;16.66;55.25;100857.53;5057139;28;1497;-60
2023/09/22 10:12:43;;;;;;;;;;;;;;;16.68;55.15;100863.56;5052093;28;1071;-60
2023/09/22 10:15:09;;;;;;;;;;;;;;;16.66;55.06;100856.69;5056660;28;1913;-60
2023/09/22 10:17:35;;;;;;;;;;;;;;;16.67;54.97;100859.16;5057054;28;1019;-58
2023/09/22 10:20:10;;;;;;;;;;;;;;;16.60;55.11;100858.59;5057115;28;981;-61
2023/09/22 10:22:36;;;;;;;;;;;;;;;16.57;55.09;100859.16;5061245;28;1068;-58
2023/09/22 10:25:11;;;;;;;;;;;;;;;16.57;54.92;100861.91;5075678;28;1265;-58
2023/09/22 10:27:55;;;;;;;;;;;;;;;16.55;54.90;100859.44;5057065;28;825;-58
2023/09/22 10:30:22;;;;;;;;;;;;;;;16.53;55.11;100858.03;5060033;28;1101;-65
2023/09/22 10:32:47;;;;;;;;;;;;;;;16.54;54.71;100856.97;5065930;28;1111;-65
2023/09/22 10:35:15;;;;;;;;;;;;;;;16.50;54.78;100858.59;5071687;28;1907;-62
2023/09/22 10:38:02;;;;;;;;;;;;;;;16.51;54.79;100861.06;5045186;28;1011;-65
2023/09/22 10:40:28;;;;;;;;;;;;;;;16.49;54.84;100848.69;5066363;28;1051;-60
2023/09/22 10:42:54;;;;;;;;;;;;;;;16.47;54.71;100848.97;5059738;28;1115;-61
2023/09/22 10:45:25;;;;;;;;;;;;;;;16.50;54.59;100850.34;5066722;28;1146;-63
2023/09/22 10:47:53;;;;;;;;;;;;;;;16.41;55.03;100848.13;5061513;28;1085;-60
2023/09/22 10:50:19;;;;;;;;;;;;;;;16.46;54.67;100846.50;5071745;28;1274;-62
2023/09/22 10:53:03;;;;;;;;;;;;;;;16.41;54.76;100850.03;5067290;28;1062;-61
2023/09/22 10:55:34;;;;;;;;;;;;;;;16.40;54.79;100841.00;5074051;28;1906;-62
2023/09/22 10:58:00;;;;;;;;;;;;;;;17.28;55.80;100838.34;5063554;28;1188;-60
2023/09/22 11:00:26;;;;;;;;;;;;;;;17.21;56.31;100835.06;5056292;28;1020;-61
2023/09/22 11:02:51;;;;;;;;;;;;;;;16.96;56.33;100839.44;5060284;28;1027;-58
2023/09/22 11:05:17;;;;;;;;;;;;;;;16.85;56.08;100829.53;5062121;28;1023;-60
2023/09/22 11:07:42;;;;;;;;;;;;;;;16.80;55.71;100840.50;5075223;28;1140;-58
2023/09/22 11:10:08;;;;;;;;;;;;;;;16.73;55.61;100833.38;5057477;28;1066;-57
2023/09/22 11:12:33;;;;;;;;;;;;;;;16.67;55.77;100830.88;5075906;28;1123;-58
2023/09/22 11:15:00;;;;;;;;;;;;;;;16.70;55.07;100831.16;5069754;28;1047;-60
2023/09/22 11:17:38;;;;;;;;;;;;;;;16.60;55.28;100820.97;5064699;28;1902;-59
2023/09/22 11:20:11;;;;;;;;;;;;;;;16.62;55.38;100825.38;5068233;28;1012;-59
2023/09/22 11:22:38;;;;;;;;;;;;;;;16.56;55.35;100819.06;5060764;28;1071;-62
2023/09/22 11:25:05;;;;;;;;;;;;;;;16.58;55.25;100822.38;5075511;28;1066;-60
2023/09/22 11:27:30;;;;;;;;;;;;;;;16.54;55.28;100821.28;5075111;28;1139;-61
2023/09/22 11:30:17;;;;;;;;;;;;;;;16.56;55.16;100819.06;5075982;28;1011;-65
2023/09/22 11:32:43;;;;;;;;;;;;;;;16.47;55.32;100815.22;5075254;28;975;-64
2023/09/22 11:35:09;;;;;;;;;;;;;;;16.50;55.14;100820.16;5062165;28;1909;-64
2023/09/22 11:37:34;;;;;;;;;;;;;;;16.49;55.11;100813.84;5067606;28;1167;-63
2023/09/22 11:40:00;;;;;;;;;;;;;;;16.49;54.85;100810.28;5055267;28;865;-59
2023/09/22 11:42:25;;;;;;;;;;;;;;;16.42;55.05;100811.38;5055450;28;1111;-60
2023/09/22 11:44:57;;;;;;;;;;;;;;;16.47;54.68;100810.53;5057460;28;1043;-60
2023/09/22 11:47:23;;;;;;;;;;;;;;;16.49;54.94;100802.03;5075304;28;1010;-62
2023/09/22 11:49:48;;;;;;;;;;;;;;;16.45;54.63;100817.41;5059360;28;1070;-63
2023/09/22 11:52:14;;;;;;;;;;;;;;;16.42;54.92;100811.38;5055286;28;993;-59
2023/09/22 11:54:39;;;;;;;;;;;;;;;16.98;55.96;100804.28;5068661;28;1114;-60
2023/09/22 11:57:05;;;;;;;;;;;;;;;17.55;56.18;100802.25;5064185;28;1898;-61
2023/09/22 11:59:36;;;;;;;;;;;;;;;17.08;56.55;100804.28;5075724;28;995;-60
2023/09/22 12:02:03;;;;;;;;;;;;;;;16.95;56.34;100804.84;5065644;28;1166;-58
2023/09/22 12:04:28;;;;;;;;;;;;;;;16.87;56.13;100797.13;5056647;28;1029;-62
2023/09/22 12:06:54;;;;;;;;;;;;;;;16.82;55.68;100792.47;5055441;28;1079;-61
2023/09/22 12:09:20;;;;;;;;;;;;;;;16.77;55.60;100792.44;5075957;28;1129;-60
2023/09/22 12:11:45;;;;;;;;;;;;;;;16.76;55.59;100794.38;5067468;28;1039;-59
2023/09/22 12:14:11;;;;;;;;;;;;;;;16.74;55.32;100798.50;5063744;28;1051;-61
2023/09/22 12:16:37;;;;;;;;;;;;;;;16.74;55.05;100798.50;5058910;28;1978;-64
2023/09/22 12:19:04;;;;;;;;;;;;;;;16.69;55.06;100795.72;5072932;28;1008;-61
2023/09/22 12:21:30;;;;;;;;;;;;;;;16.69;55.08;100807.56;5059770;28;1146;-58
2023/09/22 12:23:55;;;;;;;;;;;;;;;16.61;55.16;100794.38;5059864;28;1177;-56
2023/09/22 12:26:21;;;;;;;;;;;;;;;16.59;55.21;100797.41;5059407;28;1171;-59
2023/09/22 12:28:48;;;;;;;;;;;;;;;16.60;54.96;100799.03;5060816;28;991;-60
2023/09/22 12:31:13;;;;;;;;;;;;;;;16.62;54.90;100807.00;5079256;28;1078;-59
2023/09/22 12:33:39;;;;;;;;;;;;;;;16.59;54.94;100794.66;5079361;28;1097;-60
2023/09/22 12:36:05;;;;;;;;;;;;;;;16.56;55.14;100797.09;5079805;28;1975;-60
2023/09/22 12:38:31;;;;;;;;;;;;;;;16.57;54.90;100794.06;5077866;28;1051;-60
2023/09/22 12:40:59;;;;;;;;;;;;;;;16.53;54.97;100797.66;5059363;28;1115;-62
2023/09/22 12:43:25;;;;;;;;;;;;;;;16.52;54.89;100799.59;5073190;28;1075;-57
2023/09/22 12:45:50;;;;;;;;;;;;;;;16.42;55.20;100800.41;5058974;28;1163;-61